Terminal Aerodrome Forecast
Issued by NWS Denver/Boulder, CO

Home | Current Version | Previous Version | Text Only | Print | Product List | Glossary On
Versions: 1 2 3 4 5 6 7 8 9 10 11 12 13 14 15 16 17 18 19 20 21 22 23 24 25 26 27 28 29 30 31 32 33 34 35 36 37 38 39 40 41 42 43 44 45 46 47 48 49 50
000
FTUS45 KBOU 302340
TAFDEN
TAF
KDEN 302340Z 3100/0106 01006KT P6SM SCT050 BKN080
     FM310400 33007KT P6SM VCSH BKN030 OVC050
      TEMPO 3107/3111 5SM -SN BR BKN020 OVC035
     FM311200 29006KT P6SM VCSH SCT020 BKN030
      TEMPO 3112/3115 BKN020
     FM311600 34006KT P6SM SCT040 BKN070
     FM311900 36005KT P6SM SCT050 BKN070=

USA.gov is the U.S. government's official web portal to all federal, state and local government web resources and services.